Colerain, North Carolina
Current Conditions -  °F | °C
As of 6:55 PM on Wednesday 26 Nov 2014 (Local Time) from KEDE Reporting Station
Overcast Overcast  
Wind Chill:   Ceiling: 1600
Heat Index:   Visibility: 10mi
Dew Point:   Wind: 13mph
Humidity: 88%   Direction: 310°NW
Pressure: 29.97"   Gusts: 17mph
Location:  36.2°N, 76.77°W
Report Text: KEDE 262355Z AUTO 31011G15KT 10SM OVC016 06/04 A2997 RMK AO2 60006 T00550037 10078 20055
Loading
Personal Weather Stations






























Interactive Weather Map New forecast layout! Learn more

10-Day Weather Forecast

Advertisements
Track Severe Weather on mobile